createdAt,value
2024-01-06T00:02:09.937Z,82.62
2024-01-06T00:04:38.462Z,82.77
2024-01-06T00:07:07.071Z,82.83
2024-01-06T00:09:35.649Z,82.73
2024-01-06T00:12:04.813Z,82.57
2024-01-06T00:14:33.340Z,82.77
2024-01-06T00:17:01.944Z,83.01
2024-01-06T00:19:30.588Z,83.20
2024-01-06T00:21:59.144Z,83.16
2024-01-06T00:24:27.705Z,83.13
2024-01-06T00:26:56.998Z,83.06
2024-01-06T00:29:25.849Z,82.97
2024-01-06T00:31:54.365Z,83.21
2024-01-06T00:34:23.589Z,83.00
2024-01-06T00:36:52.290Z,83.12
2024-01-06T00:39:21.856Z,83.01
2024-01-06T00:41:50.473Z,82.99
2024-01-06T00:44:18.992Z,82.95
2024-01-06T00:46:47.536Z,82.90
2024-01-06T00:49:16.260Z,83.05
2024-01-06T00:51:44.788Z,83.02
2024-01-06T00:54:13.573Z,83.67
2024-01-06T00:56:43.664Z,83.91
2024-01-06T00:59:12.123Z,84.18
2024-01-06T01:01:42.447Z,84.98
2024-01-06T01:04:12.318Z,85.04
2024-01-06T01:06:41.821Z,85.21
2024-01-06T01:09:14.616Z,85.33
2024-01-06T01:11:43.785Z,85.83
2024-01-06T01:14:12.469Z,85.44
2024-01-06T01:16:40.981Z,85.63
2024-01-06T01:19:09.614Z,85.70
2024-01-06T01:21:38.280Z,85.37
2024-01-06T01:24:06.939Z,85.63
2024-01-06T01:26:35.519Z,85.37
2024-01-06T01:29:04.080Z,85.44
2024-01-06T01:31:32.920Z,85.34
2024-01-06T01:34:01.820Z,85.20
2024-01-06T01:36:30.685Z,85.00
2024-01-06T01:38:59.907Z,85.43
2024-01-06T01:41:29.906Z,85.45
2024-01-06T01:44:01.578Z,85.37
2024-01-06T01:46:31.352Z,85.78
2024-01-06T01:49:02.826Z,85.93
2024-01-06T01:51:35.551Z,85.72
2024-01-06T01:54:06.783Z,85.87
2024-01-06T01:56:36.052Z,85.83
2024-01-06T01:59:12.115Z,86.17
2024-01-06T02:01:44.110Z,86.32
2024-01-06T02:04:14.686Z,85.94
2024-01-06T02:06:43.385Z,86.20
2024-01-06T02:09:12.623Z,86.35
2024-01-06T02:11:41.120Z,86.38
2024-01-06T02:14:09.875Z,86.27
2024-01-06T02:16:38.463Z,86.10
2024-01-06T02:19:12.249Z,86.39
2024-01-06T02:21:45.546Z,86.17
2024-01-06T02:24:15.002Z,86.43
2024-01-06T02:26:44.646Z,86.01
2024-01-06T02:29:13.311Z,86.25
2024-01-06T02:31:41.881Z,86.35
2024-01-06T02:34:10.597Z,86.31
2024-01-06T02:36:39.240Z,86.31
2024-01-06T02:39:07.940Z,86.12
2024-01-06T02:41:36.493Z,85.90
2024-01-06T02:44:05.491Z,85.57
2024-01-06T02:46:34.079Z,85.24
2024-01-06T02:49:02.814Z,85.17
2024-01-06T02:51:31.553Z,84.99
2024-01-06T02:54:00.185Z,85.38
2024-01-06T02:56:28.701Z,85.62
2024-01-06T02:58:58.148Z,85.44
2024-01-06T03:01:27.080Z,85.85
2024-01-06T03:03:55.746Z,86.20
2024-01-06T03:06:24.536Z,86.11
2024-01-06T03:08:53.022Z,86.34
2024-01-06T03:11:21.542Z,86.34
2024-01-06T03:13:50.060Z,86.75
2024-01-06T03:16:18.779Z,86.93
2024-01-06T03:18:48.514Z,86.94
2024-01-06T03:21:21.773Z,86.68
2024-01-06T03:23:50.478Z,86.73
2024-01-06T03:26:19.692Z,86.84
2024-01-06T03:28:51.416Z,87.26
2024-01-06T03:31:20.081Z,87.46
2024-01-06T03:33:48.650Z,87.58
2024-01-06T03:36:18.619Z,87.69
2024-01-06T03:38:49.346Z,87.88
2024-01-06T03:41:18.040Z,88.00
2024-01-06T03:43:46.650Z,87.74
2024-01-06T03:46:15.260Z,87.75
2024-01-06T03:48:43.917Z,87.50
2024-01-06T03:51:14.369Z,87.74
2024-01-06T03:53:43.252Z,87.42
2024-01-06T03:56:11.816Z,87.34
2024-01-06T03:58:40.517Z,87.92
2024-01-06T04:01:09.124Z,88.01
2024-01-06T04:03:37.860Z,88.12
2024-01-06T04:06:06.619Z,88.38
2024-01-06T04:08:35.254Z,88.61
2024-01-06T04:11:05.310Z,88.49
2024-01-06T04:13:35.652Z,88.40
2024-01-06T04:16:04.730Z,88.75
2024-01-06T04:18:33.386Z,88.66
2024-01-06T04:21:02.151Z,88.80
2024-01-06T04:23:30.825Z,88.74
2024-01-06T04:25:59.357Z,88.37
2024-01-06T04:28:27.864Z,88.24
2024-01-06T04:30:56.586Z,87.98
2024-01-06T04:33:25.249Z,88.07
2024-01-06T04:35:53.874Z,88.53
2024-01-06T04:38:22.479Z,88.73
2024-01-06T04:40:50.994Z,89.47
2024-01-06T04:43:19.468Z,89.61
2024-01-06T04:45:48.672Z,90.02
2024-01-06T04:48:18.190Z,89.68
2024-01-06T04:50:46.643Z,89.69
2024-01-06T04:53:15.121Z,89.65
2024-01-06T04:55:43.716Z,89.46
2024-01-06T04:58:12.695Z,89.19
2024-01-06T05:00:41.511Z,89.06
2024-01-06T05:03:10.174Z,89.21
2024-01-06T05:05:38.835Z,89.52
2024-01-06T05:08:07.682Z,89.58
2024-01-06T05:10:36.306Z,90.14
2024-01-06T05:13:05.136Z,90.67
2024-01-06T05:15:33.794Z,91.36
2024-01-06T05:18:02.543Z,91.97
2024-01-06T05:20:31.162Z,92.25
2024-01-06T05:23:00.437Z,92.54
2024-01-06T05:25:29.207Z,92.43
2024-01-06T05:27:57.886Z,92.68
2024-01-06T05:30:26.621Z,92.73
2024-01-06T05:32:55.552Z,92.71
2024-01-06T05:35:24.514Z,92.74
2024-01-06T05:37:53.111Z,93.22
2024-01-06T05:40:21.888Z,93.09
2024-01-06T05:42:50.497Z,93.13
2024-01-06T05:45:19.144Z,93.32
2024-01-06T05:47:47.767Z,93.85
2024-01-06T05:50:17.906Z,94.10
2024-01-06T05:52:48.754Z,94.14
2024-01-06T05:55:17.524Z,94.07
2024-01-06T05:57:47.011Z,94.33
2024-01-06T06:00:20.969Z,94.92
2024-01-06T06:02:50.012Z,95.04
2024-01-06T06:05:18.691Z,95.19
2024-01-06T06:07:47.366Z,95.47
2024-01-06T06:10:17.589Z,95.62
2024-01-06T06:12:46.307Z,95.13
2024-01-06T06:15:17.017Z,95.25
2024-01-06T06:17:46.839Z,95.02
2024-01-06T06:20:15.760Z,94.74
2024-01-06T06:22:44.268Z,94.67
2024-01-06T06:25:12.821Z,94.58
2024-01-06T06:27:41.366Z,93.95
2024-01-06T06:30:10.788Z,93.71
2024-01-06T06:32:39.504Z,93.89
2024-01-06T06:35:10.276Z,93.54
2024-01-06T06:37:39.544Z,93.87
2024-01-06T06:40:09.632Z,93.81
2024-01-06T06:42:38.165Z,93.91
2024-01-06T06:45:07.224Z,93.83
2024-01-06T06:47:35.772Z,93.96
2024-01-06T06:50:04.781Z,94.30
2024-01-06T06:52:33.385Z,94.51
2024-01-06T06:55:01.968Z,94.67
2024-01-06T06:57:30.453Z,94.41
2024-01-06T06:59:59.022Z,94.15
2024-01-06T07:02:28.004Z,93.98
2024-01-06T07:04:56.725Z,93.91
2024-01-06T07:07:25.232Z,93.82
2024-01-06T07:09:55.853Z,93.62
2024-01-06T07:12:27.397Z,94.22
2024-01-06T07:14:57.234Z,93.90
2024-01-06T07:17:26.693Z,93.97
2024-01-06T07:19:55.435Z,93.36
2024-01-06T07:22:24.021Z,93.06
2024-01-06T07:24:52.756Z,93.38
2024-01-06T07:27:22.138Z,93.46
2024-01-06T07:29:50.826Z,93.80
2024-01-06T07:32:19.552Z,94.10
2024-01-06T07:34:48.164Z,94.23
2024-01-06T07:37:16.917Z,94.13
2024-01-06T07:39:45.563Z,94.08
2024-01-06T07:42:14.227Z,94.04
2024-01-06T07:44:42.887Z,94.11
2024-01-06T07:47:12.830Z,93.83
2024-01-06T07:49:42.775Z,93.58
2024-01-06T07:52:12.798Z,93.57
2024-01-06T07:54:41.294Z,93.53
2024-01-06T07:57:09.905Z,93.41
2024-01-06T07:59:38.482Z,93.51
2024-01-06T08:02:07.428Z,93.20
2024-01-06T08:04:36.109Z,93.33
2024-01-06T08:07:04.998Z,93.26
2024-01-06T08:09:33.859Z,93.28
2024-01-06T08:12:04.632Z,93.46
2024-01-06T08:14:33.144Z,93.24
2024-01-06T08:17:01.685Z,93.46
2024-01-06T08:19:32.068Z,93.63
2024-01-06T08:22:00.855Z,94.02
2024-01-06T08:24:31.113Z,93.75
2024-01-06T08:26:59.680Z,93.41
2024-01-06T08:29:28.350Z,92.79
2024-01-06T08:31:57.081Z,92.64
2024-01-06T08:34:26.834Z,92.76
2024-01-06T08:36:56.672Z,92.43
2024-01-06T08:39:26.093Z,92.76
2024-01-06T08:41:55.451Z,92.52
2024-01-06T08:44:25.286Z,92.54
2024-01-06T08:46:53.841Z,92.46
2024-01-06T08:49:22.379Z,92.12
2024-01-06T08:51:51.025Z,92.08
2024-01-06T08:54:19.799Z,92.04
2024-01-06T08:56:48.689Z,92.09
2024-01-06T08:59:17.172Z,92.39
2024-01-06T09:01:48.733Z,91.42
2024-01-06T09:04:20.375Z,91.14
2024-01-06T09:06:49.066Z,90.94
2024-01-06T09:09:17.841Z,90.75
2024-01-06T09:11:47.652Z,91.03
2024-01-06T09:14:16.983Z,90.79
2024-01-06T09:16:45.535Z,90.67
2024-01-06T09:19:14.427Z,90.61
2024-01-06T09:21:43.072Z,90.05
2024-01-06T09:24:11.690Z,89.97
2024-01-06T09:26:40.574Z,89.63
2024-01-06T09:29:10.308Z,89.43
2024-01-06T09:31:40.340Z,89.25
2024-01-06T09:34:11.610Z,89.00
2024-01-06T09:36:40.387Z,88.88
2024-01-06T09:39:09.615Z,88.74
2024-01-06T09:41:39.368Z,88.96
2024-01-06T09:44:09.613Z,88.44
2024-01-06T09:46:41.777Z,87.76
2024-01-06T09:49:10.626Z,87.57
2024-01-06T09:51:40.938Z,87.22
2024-01-06T09:54:15.437Z,87.07
2024-01-06T09:56:46.812Z,86.46
2024-01-06T09:59:16.631Z,86.44
2024-01-06T10:01:46.471Z,85.99
2024-01-06T10:04:19.703Z,86.11
2024-01-06T10:06:50.902Z,85.64
2024-01-06T10:09:19.575Z,85.94
2024-01-06T10:11:48.119Z,86.32
2024-01-06T10:14:16.722Z,85.94
2024-01-06T10:16:45.426Z,84.93
2024-01-06T10:19:14.677Z,84.82
2024-01-06T10:21:43.841Z,84.99
2024-01-06T10:24:12.932Z,84.86
2024-01-06T10:26:41.553Z,84.51
2024-01-06T10:29:10.310Z,84.61
2024-01-06T10:31:38.979Z,84.12
2024-01-06T10:34:08.234Z,84.07
2024-01-06T10:36:37.736Z,83.60
2024-01-06T10:39:13.599Z,83.53
2024-01-06T10:41:43.844Z,83.99
2024-01-06T10:44:14.198Z,84.56
2024-01-06T10:46:43.627Z,84.55
2024-01-06T10:49:13.860Z,84.64
2024-01-06T10:51:42.736Z,84.45
2024-01-06T10:54:14.559Z,84.31
2024-01-06T10:56:44.708Z,84.20
2024-01-06T10:59:14.992Z,84.29
2024-01-06T11:01:45.717Z,83.72
2024-01-06T11:04:15.552Z,82.89
2024-01-06T11:06:44.506Z,82.80
2024-01-06T11:09:29.599Z,82.04
2024-01-06T11:11:58.811Z,81.74
2024-01-06T11:14:34.518Z,81.45
2024-01-06T11:17:03.064Z,80.76
2024-01-06T11:19:38.632Z,80.88
2024-01-06T11:22:40.866Z,80.72
2024-01-06T11:25:16.538Z,80.35
2024-01-06T11:27:48.957Z,80.88
2024-01-06T11:30:27.617Z,81.04
2024-01-06T11:33:00.333Z,81.30
2024-01-06T11:35:31.234Z,81.74
2024-01-06T11:38:05.076Z,81.57
2024-01-06T11:40:38.489Z,81.81
2024-01-06T11:43:13.589Z,81.92
2024-01-06T11:46:08.633Z,81.56
2024-01-06T11:48:38.161Z,81.81
2024-01-06T11:51:06.717Z,81.03
2024-01-06T11:53:35.505Z,81.51
2024-01-06T11:56:06.012Z,81.34
2024-01-06T11:58:35.065Z,82.02
2024-01-06T12:01:03.909Z,82.55
2024-01-06T12:03:32.637Z,82.44
2024-01-06T12:06:04.713Z,82.41
2024-01-06T12:08:34.488Z,82.52
2024-01-06T12:11:05.513Z,82.35
2024-01-06T12:13:34.974Z,82.80
2024-01-06T12:16:03.791Z,82.67
2024-01-06T12:18:32.470Z,82.59
2024-01-06T12:21:01.188Z,82.38
2024-01-06T12:23:30.210Z,82.18
2024-01-06T12:25:58.873Z,82.02
2024-01-06T12:28:28.685Z,81.91
2024-01-06T12:30:57.784Z,81.77
2024-01-06T12:33:42.642Z,81.64
2024-01-06T12:36:21.165Z,81.26
2024-01-06T12:38:57.518Z,82.17
2024-01-06T12:41:26.068Z,82.20
2024-01-06T12:43:54.641Z,81.78
2024-01-06T12:46:23.714Z,81.90
2024-01-06T12:48:52.627Z,82.13
2024-01-06T12:51:21.256Z,81.79
2024-01-06T12:53:50.329Z,81.48
2024-01-06T12:56:19.698Z,81.78
2024-01-06T12:58:49.922Z,81.74
2024-01-06T13:01:19.073Z,81.77
2024-01-06T13:03:47.878Z,81.47
2024-01-06T13:06:17.447Z,81.75
2024-01-06T13:08:46.058Z,81.61
2024-01-06T13:11:14.837Z,81.42
2024-01-06T13:13:43.455Z,80.76
2024-01-06T13:16:12.606Z,80.96
2024-01-06T13:18:41.675Z,80.54
2024-01-06T13:21:10.318Z,80.61
2024-01-06T13:23:39.069Z,80.92
2024-01-06T13:26:08.345Z,80.14
2024-01-06T13:28:37.488Z,80.44
2024-01-06T13:31:09.701Z,80.38
2024-01-06T13:33:38.958Z,80.70
2024-01-06T13:36:08.126Z,80.41
2024-01-06T13:38:36.703Z,80.76
2024-01-06T13:41:05.546Z,80.75
2024-01-06T13:43:34.883Z,80.66
2024-01-06T13:46:04.210Z,80.58
2024-01-06T13:48:32.947Z,80.93
2024-01-06T13:51:01.529Z,81.11
2024-01-06T13:53:30.373Z,81.36
2024-01-06T13:55:58.931Z,81.38
2024-01-06T13:58:27.665Z,81.52
2024-01-06T14:00:56.290Z,81.69
2024-01-06T14:03:25.016Z,82.10
2024-01-06T14:05:56.271Z,82.09
2024-01-06T14:08:26.328Z,82.27
2024-01-06T14:10:55.218Z,82.48
2024-01-06T14:13:23.948Z,82.76
2024-01-06T14:15:52.698Z,83.01
2024-01-06T14:18:21.284Z,83.04
2024-01-06T14:20:49.978Z,83.36
2024-01-06T14:23:18.501Z,83.51
2024-01-06T14:25:47.245Z,83.39
2024-01-06T14:28:15.742Z,83.74
2024-01-06T14:30:44.485Z,83.72
2024-01-06T14:33:13.126Z,83.97
2024-01-06T14:35:43.202Z,83.87
2024-01-06T14:38:12.731Z,84.00
2024-01-06T14:40:41.564Z,84.13
2024-01-06T14:43:12.308Z,83.95
2024-01-06T14:45:42.138Z,84.27
2024-01-06T14:48:11.827Z,84.47
2024-01-06T14:50:40.530Z,84.93
2024-01-06T14:53:09.891Z,85.03
2024-01-06T14:55:39.307Z,85.31
2024-01-06T14:58:09.842Z,85.64
2024-01-06T15:00:38.629Z,85.74
2024-01-06T15:03:07.349Z,85.60
2024-01-06T15:05:36.157Z,85.90
2024-01-06T15:08:05.222Z,85.73
2024-01-06T15:10:33.693Z,85.79
2024-01-06T15:13:02.309Z,85.48
2024-01-06T15:15:30.888Z,85.48
2024-01-06T15:17:59.651Z,85.46
2024-01-06T15:20:30.222Z,85.37
2024-01-06T15:22:59.215Z,85.34
2024-01-06T15:25:29.602Z,85.60
2024-01-06T15:27:58.121Z,85.66
2024-01-06T15:30:26.686Z,85.65
2024-01-06T15:32:55.352Z,85.51
2024-01-06T15:35:24.488Z,85.56
2024-01-06T15:37:53.544Z,85.75
2024-01-06T15:40:22.221Z,85.93
2024-01-06T15:42:50.826Z,86.06
2024-01-06T15:45:19.438Z,86.06
2024-01-06T15:47:48.036Z,86.24
2024-01-06T15:50:16.761Z,86.14
2024-01-06T15:52:47.207Z,86.23
2024-01-06T15:55:17.097Z,86.39
2024-01-06T15:57:46.458Z,86.30
2024-01-06T16:00:15.775Z,86.47
2024-01-06T16:02:44.369Z,86.57
2024-01-06T16:05:14.868Z,86.91
2024-01-06T16:07:43.599Z,86.85
2024-01-06T16:10:12.838Z,86.98
2024-01-06T16:13:01.652Z,87.34
2024-01-06T16:15:30.824Z,87.04
2024-01-06T16:17:59.467Z,87.42
2024-01-06T16:20:28.063Z,87.41
2024-01-06T16:22:57.912Z,87.46
2024-01-06T16:25:26.806Z,87.57
2024-01-06T16:27:56.315Z,87.12
2024-01-06T16:30:25.010Z,87.02
2024-01-06T16:32:53.808Z,86.88
2024-01-06T16:35:22.546Z,86.97
2024-01-06T16:37:52.647Z,87.25
2024-01-06T16:40:21.165Z,87.64
2024-01-06T16:42:53.348Z,87.74
2024-01-06T16:45:22.021Z,87.79
2024-01-06T16:47:50.758Z,87.74
2024-01-06T16:50:19.304Z,87.93
2024-01-06T16:52:47.959Z,87.91
2024-01-06T16:55:16.764Z,87.93
2024-01-06T16:57:45.341Z,87.77
2024-01-06T17:00:14.550Z,87.69
2024-01-06T17:02:43.079Z,87.62
2024-01-06T17:05:11.846Z,87.28
2024-01-06T17:07:45.827Z,87.26
2024-01-06T17:10:17.778Z,87.27
2024-01-06T17:12:46.193Z,87.26
2024-01-06T17:15:15.229Z,87.80
2024-01-06T17:17:44.267Z,88.13
2024-01-06T17:20:13.014Z,88.21
2024-01-06T17:22:43.462Z,88.10
2024-01-06T17:25:16.146Z,88.09
2024-01-06T17:27:48.943Z,88.20
2024-01-06T17:30:18.942Z,88.17
2024-01-06T17:32:47.639Z,87.88
2024-01-06T17:35:16.454Z,87.68
2024-01-06T17:37:45.100Z,87.81
2024-01-06T17:40:14.425Z,87.56
2024-01-06T17:42:43.043Z,87.80
2024-01-06T17:45:12.039Z,87.89
2024-01-06T17:47:42.437Z,88.51
2024-01-06T17:50:11.423Z,88.73
2024-01-06T17:52:42.554Z,89.02
2024-01-06T17:55:11.776Z,89.22
2024-01-06T17:57:40.606Z,89.16
2024-01-06T18:00:10.650Z,89.71
2024-01-06T18:02:39.823Z,89.74
2024-01-06T18:05:09.701Z,89.91
2024-01-06T18:07:38.576Z,89.69
2024-01-06T18:10:09.940Z,89.70
2024-01-06T18:12:40.328Z,89.82
2024-01-06T18:15:09.199Z,89.80
2024-01-06T18:17:39.728Z,90.11
2024-01-06T18:20:09.693Z,90.04
2024-01-06T18:22:38.238Z,90.46
2024-01-06T18:25:07.459Z,90.85
2024-01-06T18:27:36.032Z,91.17
2024-01-06T18:30:05.377Z,91.10
2024-01-06T18:32:34.464Z,91.31
2024-01-06T18:35:03.607Z,91.74
2024-01-06T18:37:32.433Z,91.92
2024-01-06T18:40:01.196Z,92.06
2024-01-06T18:42:29.871Z,92.33
2024-01-06T18:44:58.659Z,92.43
2024-01-06T18:47:27.351Z,92.50
2024-01-06T18:49:57.048Z,92.76
2024-01-06T18:52:25.830Z,92.81
2024-01-06T18:54:54.433Z,92.83
2024-01-06T18:57:23.014Z,92.78
2024-01-06T18:59:52.050Z,92.84
2024-01-06T19:02:20.771Z,92.76
2024-01-06T19:04:49.353Z,92.77
2024-01-06T19:07:21.449Z,92.62
2024-01-06T19:09:50.662Z,92.72
2024-01-06T19:12:19.641Z,92.44
2024-01-06T19:14:48.373Z,92.89
2024-01-06T19:17:16.981Z,92.94
2024-01-06T19:19:45.800Z,92.92
2024-01-06T19:22:14.800Z,93.19
2024-01-06T19:24:44.291Z,94.18
2024-01-06T19:27:12.894Z,95.05
2024-01-06T19:29:44.519Z,95.77
2024-01-06T19:32:13.934Z,96.11
2024-01-06T19:34:43.050Z,95.98
2024-01-06T19:37:11.865Z,96.44
2024-01-06T19:39:40.521Z,96.67
2024-01-06T19:42:09.195Z,96.56
2024-01-06T19:44:39.499Z,96.86
2024-01-06T19:47:09.766Z,96.85
2024-01-06T19:49:38.620Z,96.60
2024-01-06T19:52:07.538Z,96.34
2024-01-06T19:54:37.957Z,96.16
2024-01-06T19:57:06.837Z,95.29
2024-01-06T19:59:35.361Z,94.68
2024-01-06T20:02:03.951Z,95.07
2024-01-06T20:04:32.529Z,94.98
2024-01-06T20:07:01.773Z,93.96
2024-01-06T20:09:30.475Z,91.79
2024-01-06T20:11:59.138Z,91.70
2024-01-06T20:14:27.813Z,91.82
2024-01-06T20:16:57.183Z,92.08
2024-01-06T20:19:26.992Z,92.78
2024-01-06T20:21:56.762Z,92.38
2024-01-06T20:24:26.190Z,92.15
2024-01-06T20:26:57.758Z,92.47
2024-01-06T20:29:27.357Z,93.13
2024-01-06T20:31:56.384Z,94.36
2024-01-06T20:34:28.251Z,95.25
2024-01-06T20:36:57.705Z,96.25
2024-01-06T20:39:26.388Z,96.52
2024-01-06T20:41:55.001Z,96.35
2024-01-06T20:44:23.750Z,96.30
2024-01-06T20:46:54.261Z,96.57
2024-01-06T20:49:25.018Z,96.41
2024-01-06T20:51:54.754Z,95.78
2024-01-06T20:54:24.644Z,94.86
2024-01-06T20:56:56.150Z,93.60
2024-01-06T20:59:24.989Z,93.58
2024-01-06T21:01:54.360Z,94.02
2024-01-06T21:04:25.705Z,93.63
2024-01-06T21:06:54.369Z,93.44
2024-01-06T21:09:27.178Z,93.36
2024-01-06T21:11:56.135Z,93.14
2024-01-06T21:14:24.662Z,93.45
2024-01-06T21:16:53.324Z,93.39
2024-01-06T21:19:23.883Z,93.26
2024-01-06T21:21:53.474Z,93.28
2024-01-06T21:24:26.179Z,93.01
2024-01-06T21:26:55.283Z,93.71
2024-01-06T21:29:24.251Z,93.04
2024-01-06T21:31:52.832Z,93.08
2024-01-06T21:34:25.506Z,93.04
2024-01-06T21:36:54.792Z,93.73
2024-01-06T21:39:23.817Z,94.03
2024-01-06T21:55:15.154Z,94.93
2024-01-06T21:57:44.580Z,95.77
2024-01-06T22:00:17.149Z,96.58
2024-01-06T22:02:46.252Z,96.86
2024-01-06T22:05:14.887Z,96.08
2024-01-06T22:07:43.533Z,95.38
2024-01-06T22:10:12.099Z,94.71
2024-01-06T22:12:40.781Z,95.14
2024-01-06T22:15:10.187Z,95.06
2024-01-06T22:17:38.824Z,95.08
2024-01-06T22:20:09.092Z,95.21
2024-01-06T22:22:37.618Z,95.97
2024-01-06T22:25:06.942Z,96.97
2024-01-06T22:27:35.535Z,97.00
2024-01-06T22:30:07.847Z,97.25
2024-01-06T22:32:37.012Z,97.61
2024-01-06T22:35:06.326Z,99.63
2024-01-06T22:37:34.970Z,100.00
2024-01-06T22:40:06.315Z,100.00
2024-01-06T22:42:34.905Z,100.00
2024-01-06T22:45:03.649Z,100.00
2024-01-06T22:47:32.492Z,100.00
2024-01-06T22:50:01.049Z,100.00
2024-01-06T22:52:29.663Z,100.00
2024-01-06T22:54:58.280Z,100.00
2024-01-06T22:57:27.051Z,100.00
2024-01-06T22:59:55.674Z,100.00
2024-01-06T23:02:24.440Z,100.00
2024-01-06T23:04:54.782Z,100.00
2024-01-06T23:07:24.191Z,100.00
2024-01-06T23:09:53.095Z,100.00
2024-01-06T23:12:22.137Z,100.00
2024-01-06T23:14:50.736Z,100.00
2024-01-06T23:17:19.369Z,100.00
2024-01-06T23:19:48.168Z,100.00
2024-01-06T23:22:16.902Z,100.00
2024-01-06T23:24:45.598Z,100.00
2024-01-06T23:27:14.088Z,100.00
2024-01-06T23:29:42.608Z,100.00
2024-01-06T23:32:11.186Z,100.00
2024-01-06T23:34:42.943Z,100.00
2024-01-06T23:37:12.173Z,100.00
2024-01-06T23:39:40.827Z,100.00
2024-01-06T23:42:10.692Z,100.00
2024-01-06T23:44:40.718Z,100.00
2024-01-06T23:47:09.676Z,100.00
2024-01-06T23:49:38.329Z,100.00
2024-01-06T23:52:07.038Z,100.00
2024-01-06T23:54:42.870Z,100.00
2024-01-06T23:57:11.385Z,100.00
2024-01-06T23:59:42.162Z,100.00
